sensor_id;sensor_type;location;lat;lon;timestamp;P1;durP1;ratioP1;P2;durP2;ratioP2
2406;SDS011;37709;53.480;9.688;2023-06-14T00:02:01;3.80;;;2.60;;
2406;SDS011;37709;53.480;9.688;2023-06-14T00:04:31;4.27;;;3.07;;
2406;SDS011;37709;53.480;9.688;2023-06-14T00:06:59;3.50;;;2.83;;
2406;SDS011;37709;53.480;9.688;2023-06-14T00:09:27;3.60;;;2.73;;
2406;SDS011;37709;53.480;9.688;2023-06-14T00:11:54;5.07;;;2.80;;
2406;SDS011;37709;53.480;9.688;2023-06-14T00:14:22;3.73;;;3.10;;
2406;SDS011;37709;53.480;9.688;2023-06-14T00:16:49;5.60;;;3.10;;
2406;SDS011;37709;53.480;9.688;2023-06-14T00:19:20;5.43;;;2.70;;
2406;SDS011;37709;53.480;9.688;2023-06-14T00:21:47;7.60;;;3.83;;
2406;SDS011;37709;53.480;9.688;2023-06-14T00:24:15;4.70;;;2.50;;
2406;SDS011;37709;53.480;9.688;2023-06-14T00:26:43;3.40;;;3.10;;
2406;SDS011;37709;53.480;9.688;2023-06-14T00:29:10;4.03;;;2.77;;
2406;SDS011;37709;53.480;9.688;2023-06-14T00:31:38;5.87;;;2.63;;
2406;SDS011;37709;53.480;9.688;2023-06-14T00:34:06;2.70;;;2.43;;
2406;SDS011;37709;53.480;9.688;2023-06-14T00:36:36;4.63;;;2.60;;
2406;SDS011;37709;53.480;9.688;2023-06-14T00:39:04;4.23;;;2.63;;
2406;SDS011;37709;53.480;9.688;2023-06-14T00:41:31;3.37;;;2.67;;
2406;SDS011;37709;53.480;9.688;2023-06-14T00:43:59;5.53;;;2.70;;
2406;SDS011;37709;53.480;9.688;2023-06-14T00:46:26;3.70;;;3.40;;
2406;SDS011;37709;53.480;9.688;2023-06-14T00:48:55;3.77;;;2.80;;
2406;SDS011;37709;53.480;9.688;2023-06-14T00:51:24;4.57;;;2.97;;
2406;SDS011;37709;53.480;9.688;2023-06-14T00:53:53;7.07;;;3.40;;
2406;SDS011;37709;53.480;9.688;2023-06-14T00:56:21;4.43;;;2.93;;
2406;SDS011;37709;53.480;9.688;2023-06-14T00:58:50;3.70;;;2.40;;
2406;SDS011;37709;53.480;9.688;2023-06-14T01:01:18;3.87;;;2.63;;
2406;SDS011;37709;53.480;9.688;2023-06-14T01:04:05;3.10;;;2.77;;
2406;SDS011;37709;53.480;9.688;2023-06-14T01:06:47;4.13;;;3.00;;
2406;SDS011;37709;53.480;9.688;2023-06-14T01:09:22;3.37;;;2.90;;
2406;SDS011;37709;53.480;9.688;2023-06-14T01:11:59;3.80;;;2.97;;
2406;SDS011;37709;53.480;9.688;2023-06-14T01:14:29;2.90;;;2.70;;
2406;SDS011;37709;53.480;9.688;2023-06-14T01:16:57;3.27;;;2.97;;
2406;SDS011;37709;53.480;9.688;2023-06-14T01:19:27;4.27;;;3.23;;
2406;SDS011;37709;53.480;9.688;2023-06-14T01:21:56;4.37;;;2.90;;
2406;SDS011;37709;53.480;9.688;2023-06-14T01:24:23;3.90;;;2.80;;
2406;SDS011;37709;53.480;9.688;2023-06-14T01:26:53;3.67;;;2.90;;
2406;SDS011;37709;53.480;9.688;2023-06-14T01:29:23;4.43;;;2.77;;
2406;SDS011;37709;53.480;9.688;2023-06-14T01:31:54;3.37;;;2.60;;
2406;SDS011;37709;53.480;9.688;2023-06-14T01:34:21;4.77;;;2.90;;
2406;SDS011;37709;53.480;9.688;2023-06-14T01:36:50;3.83;;;3.30;;
2406;SDS011;37709;53.480;9.688;2023-06-14T01:39:19;2.83;;;2.63;;
2406;SDS011;37709;53.480;9.688;2023-06-14T01:41:47;3.87;;;3.20;;
2406;SDS011;37709;53.480;9.688;2023-06-14T01:44:18;4.20;;;3.37;;
2406;SDS011;37709;53.480;9.688;2023-06-14T01:46:46;3.13;;;2.60;;
2406;SDS011;37709;53.480;9.688;2023-06-14T01:49:14;6.37;;;2.97;;
2406;SDS011;37709;53.480;9.688;2023-06-14T01:51:42;3.83;;;3.50;;
2406;SDS011;37709;53.480;9.688;2023-06-14T01:54:10;3.93;;;3.13;;
2406;SDS011;37709;53.480;9.688;2023-06-14T01:56:38;4.13;;;2.90;;
2406;SDS011;37709;53.480;9.688;2023-06-14T01:59:05;3.57;;;3.00;;
2406;SDS011;37709;53.480;9.688;2023-06-14T02:01:33;5.07;;;3.30;;
2406;SDS011;37709;53.480;9.688;2023-06-14T02:04:01;4.53;;;3.60;;
2406;SDS011;37709;53.480;9.688;2023-06-14T02:06:29;4.40;;;3.70;;
2406;SDS011;37709;53.480;9.688;2023-06-14T02:08:57;3.50;;;3.20;;
2406;SDS011;37709;53.480;9.688;2023-06-14T02:11:27;4.20;;;3.20;;
2406;SDS011;37709;53.480;9.688;2023-06-14T02:13:56;4.33;;;3.47;;
2406;SDS011;37709;53.480;9.688;2023-06-14T02:16:26;5.10;;;3.97;;
2406;SDS011;37709;53.480;9.688;2023-06-14T02:18:56;4.93;;;3.80;;
2406;SDS011;37709;53.480;9.688;2023-06-14T02:21:24;4.47;;;4.07;;
2406;SDS011;37709;53.480;9.688;2023-06-14T02:23:51;5.53;;;3.77;;
2406;SDS011;37709;53.480;9.688;2023-06-14T02:26:20;5.20;;;4.00;;
2406;SDS011;37709;53.480;9.688;2023-06-14T02:28:48;5.07;;;3.60;;
2406;SDS011;37709;53.480;9.688;2023-06-14T02:31:15;5.40;;;4.50;;
2406;SDS011;37709;53.480;9.688;2023-06-14T02:33:43;5.13;;;4.03;;
2406;SDS011;37709;53.480;9.688;2023-06-14T02:36:10;9.20;;;4.30;;
2406;SDS011;37709;53.480;9.688;2023-06-14T02:38:38;4.43;;;4.03;;
2406;SDS011;37709;53.480;9.688;2023-06-14T02:41:08;5.27;;;4.30;;
2406;SDS011;37709;53.480;9.688;2023-06-14T02:43:36;7.00;;;4.50;;
2406;SDS011;37709;53.480;9.688;2023-06-14T02:46:05;6.20;;;4.93;;
2406;SDS011;37709;53.480;9.688;2023-06-14T02:48:33;6.50;;;4.30;;
2406;SDS011;37709;53.480;9.688;2023-06-14T02:51:01;7.80;;;3.80;;
2406;SDS011;37709;53.480;9.688;2023-06-14T02:53:29;7.37;;;4.23;;
2406;SDS011;37709;53.480;9.688;2023-06-14T02:55:57;5.30;;;4.30;;
2406;SDS011;37709;53.480;9.688;2023-06-14T02:58:25;4.50;;;4.10;;
2406;SDS011;37709;53.480;9.688;2023-06-14T03:00:53;9.20;;;5.03;;
2406;SDS011;37709;53.480;9.688;2023-06-14T03:03:22;6.07;;;4.40;;
2406;SDS011;37709;53.480;9.688;2023-06-14T03:05:54;4.90;;;4.13;;
2406;SDS011;37709;53.480;9.688;2023-06-14T03:08:26;7.87;;;4.67;;
2406;SDS011;37709;53.480;9.688;2023-06-14T03:10:58;6.10;;;4.23;;
2406;SDS011;37709;53.480;9.688;2023-06-14T03:13:26;8.33;;;5.10;;
2406;SDS011;37709;53.480;9.688;2023-06-14T03:15:54;5.10;;;4.60;;
2406;SDS011;37709;53.480;9.688;2023-06-14T03:18:23;5.73;;;4.80;;
2406;SDS011;37709;53.480;9.688;2023-06-14T03:20:55;5.53;;;5.03;;
2406;SDS011;37709;53.480;9.688;2023-06-14T03:23:25;8.03;;;4.70;;
2406;SDS011;37709;53.480;9.688;2023-06-14T03:25:53;5.47;;;4.90;;
2406;SDS011;37709;53.480;9.688;2023-06-14T03:28:21;5.30;;;4.73;;
2406;SDS011;37709;53.480;9.688;2023-06-14T03:30:50;5.10;;;4.30;;
2406;SDS011;37709;53.480;9.688;2023-06-14T03:33:18;6.93;;;4.63;;
2406;SDS011;37709;53.480;9.688;2023-06-14T03:35:46;6.90;;;5.30;;
2406;SDS011;37709;53.480;9.688;2023-06-14T03:38:14;5.70;;;5.03;;
2406;SDS011;37709;53.480;9.688;2023-06-14T03:40:42;5.70;;;4.97;;
2406;SDS011;37709;53.480;9.688;2023-06-14T03:43:11;5.23;;;4.60;;
2406;SDS011;37709;53.480;9.688;2023-06-14T03:45:39;6.57;;;4.60;;
2406;SDS011;37709;53.480;9.688;2023-06-14T03:48:08;6.03;;;4.50;;
2406;SDS011;37709;53.480;9.688;2023-06-14T03:50:36;6.20;;;5.63;;
2406;SDS011;37709;53.480;9.688;2023-06-14T03:53:05;7.37;;;4.77;;
2406;SDS011;37709;53.480;9.688;2023-06-14T03:55:35;4.77;;;4.20;;
2406;SDS011;37709;53.480;9.688;2023-06-14T03:58:30;6.70;;;5.17;;
2406;SDS011;37709;53.480;9.688;2023-06-14T04:00:58;6.70;;;5.10;;
2406;SDS011;37709;53.480;9.688;2023-06-14T04:03:30;5.60;;;4.80;;
2406;SDS011;37709;53.480;9.688;2023-06-14T04:06:00;5.70;;;4.83;;
2406;SDS011;37709;53.480;9.688;2023-06-14T04:08:27;11.13;;;5.60;;
2406;SDS011;37709;53.480;9.688;2023-06-14T04:10:54;5.00;;;4.50;;
2406;SDS011;37709;53.480;9.688;2023-06-14T04:13:22;6.47;;;5.10;;
2406;SDS011;37709;53.480;9.688;2023-06-14T04:15:49;6.10;;;5.07;;
2406;SDS011;37709;53.480;9.688;2023-06-14T04:18:23;9.83;;;5.67;;
2406;SDS011;37709;53.480;9.688;2023-06-14T04:20:51;5.17;;;4.67;;
2406;SDS011;37709;53.480;9.688;2023-06-14T04:23:18;6.90;;;5.60;;
2406;SDS011;37709;53.480;9.688;2023-06-14T04:25:46;8.30;;;5.50;;
2406;SDS011;37709;53.480;9.688;2023-06-14T04:28:14;10.70;;;6.10;;
2406;SDS011;37709;53.480;9.688;2023-06-14T04:30:46;8.63;;;5.50;;
2406;SDS011;37709;53.480;9.688;2023-06-14T04:33:16;6.13;;;5.07;;
2406;SDS011;37709;53.480;9.688;2023-06-14T04:35:45;7.20;;;5.83;;
2406;SDS011;37709;53.480;9.688;2023-06-14T04:38:15;7.93;;;5.80;;
2406;SDS011;37709;53.480;9.688;2023-06-14T04:40:42;8.43;;;5.37;;
2406;SDS011;37709;53.480;9.688;2023-06-14T04:43:14;4.97;;;4.53;;
2406;SDS011;37709;53.480;9.688;2023-06-14T04:45:44;11.50;;;5.40;;
2406;SDS011;37709;53.480;9.688;2023-06-14T04:48:14;6.97;;;4.80;;
2406;SDS011;37709;53.480;9.688;2023-06-14T04:50:41;6.77;;;5.27;;
2406;SDS011;37709;53.480;9.688;2023-06-14T04:53:10;8.10;;;5.30;;
2406;SDS011;37709;53.480;9.688;2023-06-14T04:55:38;9.40;;;5.20;;
2406;SDS011;37709;53.480;9.688;2023-06-14T04:58:05;5.70;;;5.20;;
2406;SDS011;37709;53.480;9.688;2023-06-14T05:00:34;6.03;;;4.63;;
2406;SDS011;37709;53.480;9.688;2023-06-14T05:03:02;6.57;;;5.03;;
2406;SDS011;37709;53.480;9.688;2023-06-14T05:05:29;6.90;;;4.83;;
2406;SDS011;37709;53.480;9.688;2023-06-14T05:07:57;8.43;;;4.77;;
2406;SDS011;37709;53.480;9.688;2023-06-14T05:10:25;8.23;;;4.37;;
2406;SDS011;37709;53.480;9.688;2023-06-14T05:12:53;6.30;;;4.80;;
2406;SDS011;37709;53.480;9.688;2023-06-14T05:15:21;6.93;;;5.20;;
2406;SDS011;37709;53.480;9.688;2023-06-14T05:17:52;7.00;;;4.50;;
2406;SDS011;37709;53.480;9.688;2023-06-14T05:20:23;6.60;;;4.60;;
2406;SDS011;37709;53.480;9.688;2023-06-14T05:22:54;6.50;;;5.00;;
2406;SDS011;37709;53.480;9.688;2023-06-14T05:25:23;7.70;;;5.40;;
2406;SDS011;37709;53.480;9.688;2023-06-14T05:27:50;7.80;;;5.10;;
2406;SDS011;37709;53.480;9.688;2023-06-14T05:30:18;6.60;;;4.80;;
2406;SDS011;37709;53.480;9.688;2023-06-14T05:32:45;5.07;;;4.50;;
2406;SDS011;37709;53.480;9.688;2023-06-14T05:35:12;7.10;;;4.30;;
2406;SDS011;37709;53.480;9.688;2023-06-14T05:37:40;7.37;;;4.40;;
2406;SDS011;37709;53.480;9.688;2023-06-14T05:40:07;4.13;;;3.73;;
2406;SDS011;37709;53.480;9.688;2023-06-14T05:42:35;8.67;;;4.30;;
2406;SDS011;37709;53.480;9.688;2023-06-14T05:45:03;6.20;;;4.50;;
2406;SDS011;37709;53.480;9.688;2023-06-14T05:47:31;6.80;;;4.40;;
2406;SDS011;37709;53.480;9.688;2023-06-14T05:49:58;5.80;;;4.60;;
2406;SDS011;37709;53.480;9.688;2023-06-14T05:52:26;4.73;;;3.60;;
2406;SDS011;37709;53.480;9.688;2023-06-14T05:54:54;5.23;;;3.70;;
2406;SDS011;37709;53.480;9.688;2023-06-14T05:57:22;4.90;;;3.90;;
2406;SDS011;37709;53.480;9.688;2023-06-14T05:59:49;5.30;;;3.60;;
2406;SDS011;37709;53.480;9.688;2023-06-14T06:02:18;4.00;;;3.60;;
2406;SDS011;37709;53.480;9.688;2023-06-14T06:04:45;4.00;;;3.60;;
2406;SDS011;37709;53.480;9.688;2023-06-14T06:07:13;4.30;;;3.60;;
2406;SDS011;37709;53.480;9.688;2023-06-14T06:09:40;7.00;;;3.70;;
2406;SDS011;37709;53.480;9.688;2023-06-14T06:12:07;5.10;;;3.23;;
2406;SDS011;37709;53.480;9.688;2023-06-14T06:14:35;4.00;;;3.53;;
2406;SDS011;37709;53.480;9.688;2023-06-14T06:17:02;3.93;;;3.60;;
2406;SDS011;37709;53.480;9.688;2023-06-14T06:19:29;5.00;;;3.63;;
2406;SDS011;37709;53.480;9.688;2023-06-14T06:21:57;4.90;;;3.30;;
2406;SDS011;37709;53.480;9.688;2023-06-14T06:24:24;5.23;;;3.40;;
2406;SDS011;37709;53.480;9.688;2023-06-14T06:26:51;6.10;;;3.50;;
2406;SDS011;37709;53.480;9.688;2023-06-14T06:29:19;7.60;;;3.47;;
2406;SDS011;37709;53.480;9.688;2023-06-14T06:31:46;5.03;;;3.50;;
2406;SDS011;37709;53.480;9.688;2023-06-14T06:34:14;6.13;;;3.90;;
2406;SDS011;37709;53.480;9.688;2023-06-14T06:36:42;6.03;;;3.80;;
2406;SDS011;37709;53.480;9.688;2023-06-14T06:39:09;6.20;;;3.17;;
2406;SDS011;37709;53.480;9.688;2023-06-14T06:41:37;6.47;;;3.57;;
2406;SDS011;37709;53.480;9.688;2023-06-14T06:44:08;7.17;;;3.13;;
2406;SDS011;37709;53.480;9.688;2023-06-14T06:46:39;4.03;;;3.63;;
2406;SDS011;37709;53.480;9.688;2023-06-14T06:49:08;3.93;;;2.77;;
2406;SDS011;37709;53.480;9.688;2023-06-14T06:51:36;3.93;;;3.20;;
2406;SDS011;37709;53.480;9.688;2023-06-14T06:54:03;4.27;;;2.43;;
2406;SDS011;37709;53.480;9.688;2023-06-14T06:56:33;3.20;;;2.87;;
2406;SDS011;37709;53.480;9.688;2023-06-14T06:59:01;2.60;;;2.40;;
2406;SDS011;37709;53.480;9.688;2023-06-14T07:01:29;3.47;;;2.70;;
2406;SDS011;37709;53.480;9.688;2023-06-14T07:03:56;4.17;;;2.47;;
2406;SDS011;37709;53.480;9.688;2023-06-14T07:06:24;3.30;;;2.70;;
2406;SDS011;37709;53.480;9.688;2023-06-14T07:08:53;4.50;;;2.50;;
2406;SDS011;37709;53.480;9.688;2023-06-14T07:11:21;4.30;;;3.00;;
2406;SDS011;37709;53.480;9.688;2023-06-14T07:13:49;7.37;;;2.93;;
2406;SDS011;37709;53.480;9.688;2023-06-14T07:16:17;3.20;;;2.87;;
2406;SDS011;37709;53.480;9.688;2023-06-14T07:18:45;3.40;;;3.10;;
2406;SDS011;37709;53.480;9.688;2023-06-14T07:21:12;3.40;;;2.40;;
2406;SDS011;37709;53.480;9.688;2023-06-14T07:23:40;3.10;;;2.40;;
2406;SDS011;37709;53.480;9.688;2023-06-14T07:26:08;2.60;;;2.17;;
2406;SDS011;37709;53.480;9.688;2023-06-14T07:28:35;4.97;;;2.30;;
2406;SDS011;37709;53.480;9.688;2023-06-14T07:31:03;5.10;;;2.40;;
2406;SDS011;37709;53.480;9.688;2023-06-14T07:33:30;2.90;;;2.13;;
2406;SDS011;37709;53.480;9.688;2023-06-14T07:35:58;2.93;;;2.23;;
2406;SDS011;37709;53.480;9.688;2023-06-14T07:38:26;2.40;;;2.20;;
2406;SDS011;37709;53.480;9.688;2023-06-14T07:40:53;2.80;;;2.10;;
2406;SDS011;37709;53.480;9.688;2023-06-14T07:43:22;3.00;;;1.73;;
2406;SDS011;37709;53.480;9.688;2023-06-14T07:45:49;2.53;;;2.13;;
2406;SDS011;37709;53.480;9.688;2023-06-14T07:48:33;4.20;;;1.90;;
2406;SDS011;37709;53.480;9.688;2023-06-14T07:51:01;2.23;;;1.97;;
2406;SDS011;37709;53.480;9.688;2023-06-14T07:53:29;3.27;;;1.70;;
2406;SDS011;37709;53.480;9.688;2023-06-14T07:55:57;8.23;;;1.90;;
2406;SDS011;37709;53.480;9.688;2023-06-14T07:58:25;2.60;;;1.80;;
2406;SDS011;37709;53.480;9.688;2023-06-14T08:00:52;2.43;;;1.93;;
2406;SDS011;37709;53.480;9.688;2023-06-14T08:03:20;2.63;;;1.70;;
2406;SDS011;37709;53.480;9.688;2023-06-14T08:05:49;2.53;;;1.93;;
2406;SDS011;37709;53.480;9.688;2023-06-14T08:08:17;2.53;;;1.90;;
2406;SDS011;37709;53.480;9.688;2023-06-14T08:10:45;1.50;;;1.40;;
2406;SDS011;37709;53.480;9.688;2023-06-14T08:13:13;2.27;;;1.67;;
2406;SDS011;37709;53.480;9.688;2023-06-14T08:15:40;1.90;;;1.70;;
2406;SDS011;37709;53.480;9.688;2023-06-14T08:18:08;2.57;;;1.50;;
2406;SDS011;37709;53.480;9.688;2023-06-14T08:20:36;2.40;;;1.73;;
2406;SDS011;37709;53.480;9.688;2023-06-14T08:23:04;2.87;;;2.03;;
2406;SDS011;37709;53.480;9.688;2023-06-14T08:25:31;2.27;;;2.00;;
2406;SDS011;37709;53.480;9.688;2023-06-14T08:27:59;3.20;;;1.90;;
2406;SDS011;37709;53.480;9.688;2023-06-14T08:30:27;2.57;;;1.90;;
2406;SDS011;37709;53.480;9.688;2023-06-14T08:32:55;5.30;;;1.90;;
2406;SDS011;37709;53.480;9.688;2023-06-14T08:35:41;2.20;;;1.93;;
2406;SDS011;37709;53.480;9.688;2023-06-14T08:38:09;3.60;;;2.67;;
2406;SDS011;37709;53.480;9.688;2023-06-14T08:40:38;5.57;;;2.13;;
2406;SDS011;37709;53.480;9.688;2023-06-14T08:43:07;2.53;;;2.17;;
2406;SDS011;37709;53.480;9.688;2023-06-14T08:45:34;2.27;;;2.03;;
2406;SDS011;37709;53.480;9.688;2023-06-14T08:48:02;2.53;;;1.87;;
2406;SDS011;37709;53.480;9.688;2023-06-14T08:50:32;3.43;;;2.10;;
2406;SDS011;37709;53.480;9.688;2023-06-14T08:53:02;3.20;;;1.90;;
2406;SDS011;37709;53.480;9.688;2023-06-14T08:55:31;3.23;;;2.43;;
2406;SDS011;37709;53.480;9.688;2023-06-14T08:58:08;3.27;;;2.30;;
2406;SDS011;37709;53.480;9.688;2023-06-14T09:00:41;2.80;;;1.93;;
2406;SDS011;37709;53.480;9.688;2023-06-14T09:03:10;3.03;;;1.90;;
2406;SDS011;37709;53.480;9.688;2023-06-14T09:05:40;2.07;;;1.97;;
2406;SDS011;37709;53.480;9.688;2023-06-14T09:08:08;2.00;;;1.80;;
2406;SDS011;37709;53.480;9.688;2023-06-14T09:10:36;3.47;;;1.80;;
2406;SDS011;37709;53.480;9.688;2023-06-14T09:13:05;2.57;;;2.10;;
2406;SDS011;37709;53.480;9.688;2023-06-14T09:15:33;2.30;;;2.10;;
2406;SDS011;37709;53.480;9.688;2023-06-14T09:18:01;6.60;;;2.30;;
2406;SDS011;37709;53.480;9.688;2023-06-14T09:20:30;4.50;;;2.00;;
2406;SDS011;37709;53.480;9.688;2023-06-14T09:22:58;2.30;;;1.87;;
2406;SDS011;37709;53.480;9.688;2023-06-14T09:25:26;5.80;;;1.97;;
2406;SDS011;37709;53.480;9.688;2023-06-14T09:28:06;3.40;;;2.27;;
2406;SDS011;37709;53.480;9.688;2023-06-14T09:30:36;4.70;;;2.20;;
2406;SDS011;37709;53.480;9.688;2023-06-14T09:33:03;3.03;;;2.10;;
2406;SDS011;37709;53.480;9.688;2023-06-14T09:35:32;5.00;;;2.07;;
2406;SDS011;37709;53.480;9.688;2023-06-14T09:37:59;2.93;;;2.37;;
2406;SDS011;37709;53.480;9.688;2023-06-14T09:40:27;4.10;;;2.50;;
2406;SDS011;37709;53.480;9.688;2023-06-14T09:42:55;4.13;;;2.37;;
2406;SDS011;37709;53.480;9.688;2023-06-14T09:45:25;2.77;;;2.47;;
2406;SDS011;37709;53.480;9.688;2023-06-14T09:47:56;2.60;;;2.40;;
2406;SDS011;37709;53.480;9.688;2023-06-14T09:50:28;3.50;;;2.20;;
2406;SDS011;37709;53.480;9.688;2023-06-14T09:52:56;4.13;;;1.90;;
2406;SDS011;37709;53.480;9.688;2023-06-14T09:55:27;2.47;;;1.87;;
2406;SDS011;37709;53.480;9.688;2023-06-14T09:57:57;2.47;;;2.00;;
2406;SDS011;37709;53.480;9.688;2023-06-14T10:00:26;2.30;;;2.10;;
2406;SDS011;37709;53.480;9.688;2023-06-14T10:02:59;3.43;;;2.30;;
2406;SDS011;37709;53.480;9.688;2023-06-14T10:05:28;5.00;;;2.43;;
2406;SDS011;37709;53.480;9.688;2023-06-14T10:08:00;2.57;;;2.37;;
2406;SDS011;37709;53.480;9.688;2023-06-14T10:10:31;2.27;;;2.07;;
2406;SDS011;37709;53.480;9.688;2023-06-14T10:12:59;4.83;;;2.20;;
2406;SDS011;37709;53.480;9.688;2023-06-14T10:15:35;2.70;;;2.43;;
2406;SDS011;37709;53.480;9.688;2023-06-14T10:18:11;2.57;;;2.37;;
2406;SDS011;37709;53.480;9.688;2023-06-14T10:20:50;2.57;;;1.80;;
2406;SDS011;37709;53.480;9.688;2023-06-14T10:23:19;3.77;;;2.40;;
2406;SDS011;37709;53.480;9.688;2023-06-14T10:25:56;2.73;;;2.43;;
2406;SDS011;37709;53.480;9.688;2023-06-14T10:28:24;2.30;;;2.10;;
2406;SDS011;37709;53.480;9.688;2023-06-14T10:33:34;4.77;;;2.03;;
2406;SDS011;37709;53.480;9.688;2023-06-14T10:41:36;4.23;;;2.50;;
2406;SDS011;37709;53.480;9.688;2023-06-14T10:44:50;2.43;;;2.23;;
2406;SDS011;37709;53.480;9.688;2023-06-14T10:46:52;2.70;;;2.17;;
2406;SDS011;37709;53.480;9.688;2023-06-14T10:49:20;5.73;;;2.43;;
2406;SDS011;37709;53.480;9.688;2023-06-14T10:52:14;2.80;;;2.20;;
2406;SDS011;37709;53.480;9.688;2023-06-14T10:57:33;4.80;;;2.60;;
2406;SDS011;37709;53.480;9.688;2023-06-14T11:00:16;4.17;;;2.57;;
2406;SDS011;37709;53.480;9.688;2023-06-14T11:02:50;4.23;;;2.50;;
2406;SDS011;37709;53.480;9.688;2023-06-14T11:05:25;3.87;;;2.40;;
2406;SDS011;37709;53.480;9.688;2023-06-14T11:08:36;4.63;;;2.33;;
2406;SDS011;37709;53.480;9.688;2023-06-14T11:10:50;6.07;;;2.20;;
2406;SDS011;37709;53.480;9.688;2023-06-14T11:13:18;4.20;;;2.30;;
2406;SDS011;37709;53.480;9.688;2023-06-14T11:15:47;3.50;;;2.33;;
2406;SDS011;37709;53.480;9.688;2023-06-14T11:18:15;2.80;;;2.40;;
2406;SDS011;37709;53.480;9.688;2023-06-14T11:20:45;3.03;;;2.40;;
2406;SDS011;37709;53.480;9.688;2023-06-14T11:23:14;3.20;;;2.50;;
2406;SDS011;37709;53.480;9.688;2023-06-14T11:25:41;2.43;;;2.23;;
2406;SDS011;37709;53.480;9.688;2023-06-14T11:28:09;4.50;;;3.00;;
2406;SDS011;37709;53.480;9.688;2023-06-14T11:30:36;4.03;;;2.53;;
2406;SDS011;37709;53.480;9.688;2023-06-14T11:33:09;6.60;;;2.80;;
2406;SDS011;37709;53.480;9.688;2023-06-14T11:35:37;3.20;;;2.40;;
2406;SDS011;37709;53.480;9.688;2023-06-14T11:38:05;2.83;;;2.63;;
2406;SDS011;37709;53.480;9.688;2023-06-14T11:40:33;7.00;;;2.90;;
2406;SDS011;37709;53.480;9.688;2023-06-14T11:43:01;4.20;;;2.57;;
2406;SDS011;37709;53.480;9.688;2023-06-14T11:45:30;7.87;;;2.80;;
2406;SDS011;37709;53.480;9.688;2023-06-14T11:47:58;4.10;;;2.70;;
2406;SDS011;37709;53.480;9.688;2023-06-14T11:50:27;4.70;;;2.60;;
2406;SDS011;37709;53.480;9.688;2023-06-14T11:52:55;2.40;;;2.10;;
2406;SDS011;37709;53.480;9.688;2023-06-14T11:55:23;6.67;;;2.50;;
2406;SDS011;37709;53.480;9.688;2023-06-14T11:57:53;4.10;;;2.70;;
2406;SDS011;37709;53.480;9.688;2023-06-14T12:00:25;4.93;;;2.50;;
2406;SDS011;37709;53.480;9.688;2023-06-14T12:02:55;2.93;;;2.33;;
2406;SDS011;37709;53.480;9.688;2023-06-14T12:05:24;6.87;;;2.47;;
2406;SDS011;37709;53.480;9.688;2023-06-14T12:07:59;3.00;;;2.30;;
2406;SDS011;37709;53.480;9.688;2023-06-14T12:10:27;3.00;;;2.13;;
2406;SDS011;37709;53.480;9.688;2023-06-14T12:12:58;4.83;;;2.53;;
2406;SDS011;37709;53.480;9.688;2023-06-14T12:15:29;3.83;;;2.40;;
2406;SDS011;37709;53.480;9.688;2023-06-14T12:17:57;2.70;;;2.50;;
2406;SDS011;37709;53.480;9.688;2023-06-14T12:20:29;3.07;;;2.40;;
2406;SDS011;37709;53.480;9.688;2023-06-14T12:23:02;6.03;;;2.70;;
2406;SDS011;37709;53.480;9.688;2023-06-14T12:25:30;4.10;;;2.80;;
2406;SDS011;37709;53.480;9.688;2023-06-14T12:27:59;4.43;;;2.67;;
2406;SDS011;37709;53.480;9.688;2023-06-14T12:30:30;3.30;;;2.40;;
2406;SDS011;37709;53.480;9.688;2023-06-14T12:32:59;3.43;;;2.50;;
2406;SDS011;37709;53.480;9.688;2023-06-14T12:35:27;5.40;;;2.40;;
2406;SDS011;37709;53.480;9.688;2023-06-14T12:37:55;4.53;;;2.73;;
2406;SDS011;37709;53.480;9.688;2023-06-14T12:40:23;3.97;;;2.53;;
2406;SDS011;37709;53.480;9.688;2023-06-14T12:42:51;3.07;;;2.53;;
2406;SDS011;37709;53.480;9.688;2023-06-14T12:45:19;2.70;;;2.13;;
2406;SDS011;37709;53.480;9.688;2023-06-14T12:47:46;3.93;;;2.50;;
2406;SDS011;37709;53.480;9.688;2023-06-14T12:50:14;4.10;;;2.20;;
2406;SDS011;37709;53.480;9.688;2023-06-14T12:52:43;3.87;;;2.20;;
2406;SDS011;37709;53.480;9.688;2023-06-14T12:55:10;4.03;;;2.47;;
2406;SDS011;37709;53.480;9.688;2023-06-14T12:57:38;3.60;;;2.40;;
2406;SDS011;37709;53.480;9.688;2023-06-14T13:00:06;3.10;;;2.60;;
2406;SDS011;37709;53.480;9.688;2023-06-14T13:02:34;3.60;;;2.70;;
2406;SDS011;37709;53.480;9.688;2023-06-14T13:05:02;5.70;;;2.77;;
2406;SDS011;37709;53.480;9.688;2023-06-14T13:07:31;5.40;;;2.80;;
2406;SDS011;37709;53.480;9.688;2023-06-14T13:10:02;5.47;;;2.70;;
2406;SDS011;37709;53.480;9.688;2023-06-14T13:12:29;4.33;;;3.00;;
2406;SDS011;37709;53.480;9.688;2023-06-14T13:14:57;2.77;;;2.57;;
2406;SDS011;37709;53.480;9.688;2023-06-14T13:17:25;6.20;;;2.50;;
2406;SDS011;37709;53.480;9.688;2023-06-14T13:19:52;5.87;;;2.90;;
2406;SDS011;37709;53.480;9.688;2023-06-14T13:22:20;2.73;;;2.17;;
2406;SDS011;37709;53.480;9.688;2023-06-14T13:24:48;2.97;;;2.33;;
2406;SDS011;37709;53.480;9.688;2023-06-14T13:27:15;3.67;;;2.57;;
2406;SDS011;37709;53.480;9.688;2023-06-14T13:29:44;3.13;;;2.93;;
2406;SDS011;37709;53.480;9.688;2023-06-14T13:32:11;5.23;;;2.70;;
2406;SDS011;37709;53.480;9.688;2023-06-14T13:34:39;2.60;;;2.40;;
2406;SDS011;37709;53.480;9.688;2023-06-14T13:37:07;4.00;;;2.60;;
2406;SDS011;37709;53.480;9.688;2023-06-14T13:39:34;4.30;;;2.50;;
2406;SDS011;37709;53.480;9.688;2023-06-14T13:42:04;6.13;;;2.97;;
2406;SDS011;37709;53.480;9.688;2023-06-14T13:44:31;5.03;;;2.63;;
2406;SDS011;37709;53.480;9.688;2023-06-14T13:46:59;5.17;;;2.60;;
2406;SDS011;37709;53.480;9.688;2023-06-14T13:49:27;7.10;;;2.27;;
2406;SDS011;37709;53.480;9.688;2023-06-14T13:51:55;5.07;;;2.87;;
2406;SDS011;37709;53.480;9.688;2023-06-14T13:54:23;3.90;;;2.80;;
2406;SDS011;37709;53.480;9.688;2023-06-14T13:56:50;3.30;;;2.20;;
2406;SDS011;37709;53.480;9.688;2023-06-14T13:59:18;6.83;;;3.33;;
2406;SDS011;37709;53.480;9.688;2023-06-14T14:01:46;3.33;;;3.03;;
2406;SDS011;37709;53.480;9.688;2023-06-14T14:04:15;6.53;;;2.30;;
2406;SDS011;37709;53.480;9.688;2023-06-14T14:06:43;2.50;;;2.30;;
2406;SDS011;37709;53.480;9.688;2023-06-14T14:09:13;5.20;;;2.90;;
2406;SDS011;37709;53.480;9.688;2023-06-14T14:11:41;3.00;;;2.30;;
2406;SDS011;37709;53.480;9.688;2023-06-14T14:14:09;3.10;;;2.33;;
2406;SDS011;37709;53.480;9.688;2023-06-14T14:16:37;3.73;;;2.00;;
2406;SDS011;37709;53.480;9.688;2023-06-14T14:19:05;3.50;;;2.43;;
2406;SDS011;37709;53.480;9.688;2023-06-14T14:21:33;5.60;;;2.70;;
2406;SDS011;37709;53.480;9.688;2023-06-14T14:24:02;3.73;;;2.20;;
2406;SDS011;37709;53.480;9.688;2023-06-14T14:26:30;2.90;;;2.57;;
2406;SDS011;37709;53.480;9.688;2023-06-14T14:28:58;5.17;;;2.47;;
2406;SDS011;37709;53.480;9.688;2023-06-14T14:31:26;4.50;;;2.60;;
2406;SDS011;37709;53.480;9.688;2023-06-14T14:33:54;2.93;;;2.40;;
2406;SDS011;37709;53.480;9.688;2023-06-14T14:36:21;3.87;;;2.50;;
2406;SDS011;37709;53.480;9.688;2023-06-14T14:38:50;6.00;;;2.70;;
2406;SDS011;37709;53.480;9.688;2023-06-14T14:41:18;5.23;;;2.37;;
2406;SDS011;37709;53.480;9.688;2023-06-14T14:43:46;2.63;;;2.17;;
2406;SDS011;37709;53.480;9.688;2023-06-14T14:46:13;3.40;;;2.60;;
2406;SDS011;37709;53.480;9.688;2023-06-14T14:48:43;3.07;;;2.50;;
2406;SDS011;37709;53.480;9.688;2023-06-14T14:51:11;6.07;;;3.00;;
2406;SDS011;37709;53.480;9.688;2023-06-14T14:53:38;5.50;;;3.20;;
2406;SDS011;37709;53.480;9.688;2023-06-14T14:56:06;6.40;;;2.50;;
2406;SDS011;37709;53.480;9.688;2023-06-14T14:58:33;3.57;;;2.50;;
2406;SDS011;37709;53.480;9.688;2023-06-14T15:01:02;2.73;;;2.53;;
2406;SDS011;37709;53.480;9.688;2023-06-14T15:03:30;2.97;;;2.40;;
2406;SDS011;37709;53.480;9.688;2023-06-14T15:06:08;2.50;;;2.00;;
2406;SDS011;37709;53.480;9.688;2023-06-14T15:08:36;3.27;;;2.40;;
2406;SDS011;37709;53.480;9.688;2023-06-14T15:11:04;2.60;;;2.40;;
2406;SDS011;37709;53.480;9.688;2023-06-14T15:13:33;2.70;;;2.20;;
2406;SDS011;37709;53.480;9.688;2023-06-14T15:16:00;4.20;;;2.63;;
2406;SDS011;37709;53.480;9.688;2023-06-14T15:18:28;2.53;;;2.03;;
2406;SDS011;37709;53.480;9.688;2023-06-14T15:20:56;2.73;;;2.30;;
2406;SDS011;37709;53.480;9.688;2023-06-14T15:23:24;3.67;;;2.50;;